sensor_id;sensor_type;location;lat;lon;timestamp;P1;durP1;ratioP1;P2;durP2;ratioP2
14874;SDS011;7529;48.170;17.138;2022-12-26T00:03:00;12.40;;;11.63;;
14874;SDS011;7529;48.170;17.138;2022-12-26T00:07:12;12.13;;;11.35;;
14874;SDS011;7529;48.170;17.138;2022-12-26T00:11:24;12.80;;;12.00;;
14874;SDS011;7529;48.170;17.138;2022-12-26T00:15:38;13.25;;;12.25;;
14874;SDS011;7529;48.170;17.138;2022-12-26T00:19:50;12.60;;;11.73;;
14874;SDS011;7529;48.170;17.138;2022-12-26T00:24:02;11.73;;;11.07;;
14874;SDS011;7529;48.170;17.138;2022-12-26T00:28:14;12.40;;;11.70;;
14874;SDS011;7529;48.170;17.138;2022-12-26T00:32:26;12.98;;;11.73;;
14874;SDS011;7529;48.170;17.138;2022-12-26T00:36:37;12.48;;;11.77;;
14874;SDS011;7529;48.170;17.138;2022-12-26T00:40:49;13.13;;;12.23;;
14874;SDS011;7529;48.170;17.138;2022-12-26T00:45:00;12.98;;;12.15;;
14874;SDS011;7529;48.170;17.138;2022-12-26T00:49:12;12.25;;;11.55;;
14874;SDS011;7529;48.170;17.138;2022-12-26T00:53:24;12.85;;;12.07;;
14874;SDS011;7529;48.170;17.138;2022-12-26T00:57:35;13.18;;;12.27;;
14874;SDS011;7529;48.170;17.138;2022-12-26T01:01:47;13.30;;;12.43;;
14874;SDS011;7529;48.170;17.138;2022-12-26T01:06:00;13.13;;;12.43;;
14874;SDS011;7529;48.170;17.138;2022-12-26T01:10:13;12.07;;;11.32;;
14874;SDS011;7529;48.170;17.138;2022-12-26T01:14:25;12.20;;;11.43;;
14874;SDS011;7529;48.170;17.138;2022-12-26T01:18:36;13.63;;;12.43;;
14874;SDS011;7529;48.170;17.138;2022-12-26T01:22:48;13.65;;;12.80;;
14874;SDS011;7529;48.170;17.138;2022-12-26T01:26:59;13.48;;;12.57;;
14874;SDS011;7529;48.170;17.138;2022-12-26T01:31:11;14.85;;;13.80;;
14874;SDS011;7529;48.170;17.138;2022-12-26T01:35:23;12.43;;;11.10;;
14874;SDS011;7529;48.170;17.138;2022-12-26T01:39:34;15.15;;;14.15;;
14874;SDS011;7529;48.170;17.138;2022-12-26T01:43:59;14.10;;;13.15;;
14874;SDS011;7529;48.170;17.138;2022-12-26T01:48:17;16.02;;;12.95;;
14874;SDS011;7529;48.170;17.138;2022-12-26T01:52:34;12.82;;;11.98;;
14874;SDS011;7529;48.170;17.138;2022-12-26T01:56:52;12.50;;;11.77;;
14874;SDS011;7529;48.170;17.138;2022-12-26T02:01:04;12.48;;;11.63;;
14874;SDS011;7529;48.170;17.138;2022-12-26T02:05:18;13.73;;;12.90;;
14874;SDS011;7529;48.170;17.138;2022-12-26T02:09:45;14.18;;;13.18;;
14874;SDS011;7529;48.170;17.138;2022-12-26T02:13:57;14.15;;;13.07;;
14874;SDS011;7529;48.170;17.138;2022-12-26T02:18:09;14.15;;;13.25;;
14874;SDS011;7529;48.170;17.138;2022-12-26T02:31:16;14.38;;;13.40;;
14874;SDS011;7529;48.170;17.138;2022-12-26T02:49:31;14.55;;;13.52;;
14874;SDS011;7529;48.170;17.138;2022-12-26T02:58:40;13.38;;;12.38;;
14874;SDS011;7529;48.170;17.138;2022-12-26T03:03:27;13.23;;;12.50;;
14874;SDS011;7529;48.170;17.138;2022-12-26T03:07:59;14.70;;;13.80;;
14874;SDS011;7529;48.170;17.138;2022-12-26T03:12:33;14.00;;;13.02;;
14874;SDS011;7529;48.170;17.138;2022-12-26T03:17:08;15.13;;;14.07;;
14874;SDS011;7529;48.170;17.138;2022-12-26T03:21:35;13.35;;;12.60;;
14874;SDS011;7529;48.170;17.138;2022-12-26T03:25:53;13.68;;;12.93;;
14874;SDS011;7529;48.170;17.138;2022-12-26T03:30:25;15.68;;;14.60;;
14874;SDS011;7529;48.170;17.138;2022-12-26T03:34:55;15.85;;;14.85;;
14874;SDS011;7529;48.170;17.138;2022-12-26T03:39:16;16.08;;;15.05;;
14874;SDS011;7529;48.170;17.138;2022-12-26T03:53:54;14.43;;;13.48;;
14874;SDS011;7529;48.170;17.138;2022-12-26T04:03:28;14.00;;;13.10;;
14874;SDS011;7529;48.170;17.138;2022-12-26T04:08:00;13.32;;;12.27;;
14874;SDS011;7529;48.170;17.138;2022-12-26T04:12:34;14.98;;;13.88;;
14874;SDS011;7529;48.170;17.138;2022-12-26T04:17:13;16.08;;;14.98;;
14874;SDS011;7529;48.170;17.138;2022-12-26T04:22:16;16.40;;;14.95;;
14874;SDS011;7529;48.170;17.138;2022-12-26T04:26:57;17.88;;;16.58;;
14874;SDS011;7529;48.170;17.138;2022-12-26T04:31:30;18.20;;;16.80;;
14874;SDS011;7529;48.170;17.138;2022-12-26T04:36:14;16.10;;;15.00;;
14874;SDS011;7529;48.170;17.138;2022-12-26T04:40:49;17.00;;;15.38;;
14874;SDS011;7529;48.170;17.138;2022-12-26T04:45:22;18.50;;;17.10;;
14874;SDS011;7529;48.170;17.138;2022-12-26T04:49:41;16.48;;;15.15;;
14874;SDS011;7529;48.170;17.138;2022-12-26T04:54:11;14.77;;;13.65;;
14874;SDS011;7529;48.170;17.138;2022-12-26T04:58:23;16.50;;;15.32;;
14874;SDS011;7529;48.170;17.138;2022-12-26T05:02:38;16.05;;;14.75;;
14874;SDS011;7529;48.170;17.138;2022-12-26T05:07:11;14.38;;;13.48;;
14874;SDS011;7529;48.170;17.138;2022-12-26T05:11:50;14.77;;;13.88;;
14874;SDS011;7529;48.170;17.138;2022-12-26T05:16:02;15.13;;;14.13;;
14874;SDS011;7529;48.170;17.138;2022-12-26T05:20:32;16.33;;;13.32;;
14874;SDS011;7529;48.170;17.138;2022-12-26T05:25:02;15.30;;;14.20;;
14874;SDS011;7529;48.170;17.138;2022-12-26T05:29:33;14.48;;;13.55;;
14874;SDS011;7529;48.170;17.138;2022-12-26T05:33:45;19.10;;;13.82;;
14874;SDS011;7529;48.170;17.138;2022-12-26T05:38:14;14.88;;;13.88;;
14874;SDS011;7529;48.170;17.138;2022-12-26T05:42:26;12.07;;;11.38;;
14874;SDS011;7529;48.170;17.138;2022-12-26T05:46:38;14.40;;;13.30;;
14874;SDS011;7529;48.170;17.138;2022-12-26T05:50:51;14.73;;;13.75;;
14874;SDS011;7529;48.170;17.138;2022-12-26T05:55:07;12.52;;;11.73;;
14874;SDS011;7529;48.170;17.138;2022-12-26T05:59:19;13.13;;;12.32;;
14874;SDS011;7529;48.170;17.138;2022-12-26T06:03:30;14.60;;;13.65;;
14874;SDS011;7529;48.170;17.138;2022-12-26T06:07:43;13.75;;;12.85;;
14874;SDS011;7529;48.170;17.138;2022-12-26T06:11:54;14.05;;;13.07;;
14874;SDS011;7529;48.170;17.138;2022-12-26T06:16:08;15.95;;;14.52;;
14874;SDS011;7529;48.170;17.138;2022-12-26T06:20:21;14.18;;;13.13;;
14874;SDS011;7529;48.170;17.138;2022-12-26T06:24:33;15.45;;;14.27;;
14874;SDS011;7529;48.170;17.138;2022-12-26T06:28:44;15.00;;;13.88;;
14874;SDS011;7529;48.170;17.138;2022-12-26T06:32:56;14.75;;;13.75;;
14874;SDS011;7529;48.170;17.138;2022-12-26T06:37:08;14.52;;;13.52;;
14874;SDS011;7529;48.170;17.138;2022-12-26T06:41:20;15.73;;;14.32;;
14874;SDS011;7529;48.170;17.138;2022-12-26T06:45:32;14.35;;;13.45;;
14874;SDS011;7529;48.170;17.138;2022-12-26T06:49:44;21.50;;;15.90;;
14874;SDS011;7529;48.170;17.138;2022-12-26T06:53:58;15.07;;;14.07;;
14874;SDS011;7529;48.170;17.138;2022-12-26T06:58:12;14.30;;;13.38;;
14874;SDS011;7529;48.170;17.138;2022-12-26T07:02:23;14.38;;;13.50;;
14874;SDS011;7529;48.170;17.138;2022-12-26T07:06:36;14.55;;;13.15;;
14874;SDS011;7529;48.170;17.138;2022-12-26T07:10:48;15.25;;;14.23;;
14874;SDS011;7529;48.170;17.138;2022-12-26T07:15:00;14.88;;;13.57;;
14874;SDS011;7529;48.170;17.138;2022-12-26T07:19:13;14.77;;;13.88;;
14874;SDS011;7529;48.170;17.138;2022-12-26T07:23:26;14.73;;;13.40;;
14874;SDS011;7529;48.170;17.138;2022-12-26T07:27:39;15.10;;;13.77;;
14874;SDS011;7529;48.170;17.138;2022-12-26T07:31:51;15.23;;;14.23;;
14874;SDS011;7529;48.170;17.138;2022-12-26T07:36:03;13.55;;;12.75;;
14874;SDS011;7529;48.170;17.138;2022-12-26T07:40:16;17.42;;;16.33;;
14874;SDS011;7529;48.170;17.138;2022-12-26T07:44:28;16.67;;;15.60;;
14874;SDS011;7529;48.170;17.138;2022-12-26T07:48:41;16.02;;;14.95;;
14874;SDS011;7529;48.170;17.138;2022-12-26T07:52:53;16.23;;;15.13;;
14874;SDS011;7529;48.170;17.138;2022-12-26T07:57:04;17.58;;;16.25;;
14874;SDS011;7529;48.170;17.138;2022-12-26T08:01:16;18.15;;;16.98;;
14874;SDS011;7529;48.170;17.138;2022-12-26T08:05:28;18.15;;;16.95;;
14874;SDS011;7529;48.170;17.138;2022-12-26T08:09:40;18.27;;;17.00;;
14874;SDS011;7529;48.170;17.138;2022-12-26T08:13:54;18.27;;;17.08;;
14874;SDS011;7529;48.170;17.138;2022-12-26T08:18:05;19.40;;;17.98;;
14874;SDS011;7529;48.170;17.138;2022-12-26T08:22:17;17.00;;;15.82;;
14874;SDS011;7529;48.170;17.138;2022-12-26T08:26:30;20.17;;;18.88;;
14874;SDS011;7529;48.170;17.138;2022-12-26T08:30:41;18.52;;;17.33;;
14874;SDS011;7529;48.170;17.138;2022-12-26T08:34:53;18.38;;;17.05;;
14874;SDS011;7529;48.170;17.138;2022-12-26T08:39:05;18.33;;;17.13;;
14874;SDS011;7529;48.170;17.138;2022-12-26T08:43:29;18.80;;;17.50;;
14874;SDS011;7529;48.170;17.138;2022-12-26T08:47:41;21.95;;;20.00;;
14874;SDS011;7529;48.170;17.138;2022-12-26T08:51:53;22.05;;;20.58;;
14874;SDS011;7529;48.170;17.138;2022-12-26T08:56:05;19.17;;;17.88;;
14874;SDS011;7529;48.170;17.138;2022-12-26T09:00:19;28.08;;;26.40;;
14874;SDS011;7529;48.170;17.138;2022-12-26T09:04:33;23.13;;;21.63;;
14874;SDS011;7529;48.170;17.138;2022-12-26T09:08:44;20.88;;;19.48;;
14874;SDS011;7529;48.170;17.138;2022-12-26T09:12:56;20.25;;;18.73;;
14874;SDS011;7529;48.170;17.138;2022-12-26T09:17:08;21.02;;;19.73;;
14874;SDS011;7529;48.170;17.138;2022-12-26T09:21:21;20.85;;;19.38;;
14874;SDS011;7529;48.170;17.138;2022-12-26T09:25:34;21.88;;;20.40;;
14874;SDS011;7529;48.170;17.138;2022-12-26T09:29:45;21.33;;;19.95;;
14874;SDS011;7529;48.170;17.138;2022-12-26T09:33:57;21.80;;;20.30;;
14874;SDS011;7529;48.170;17.138;2022-12-26T09:38:13;22.98;;;21.50;;
14874;SDS011;7529;48.170;17.138;2022-12-26T09:51:14;22.20;;;20.65;;
14874;SDS011;7529;48.170;17.138;2022-12-26T10:00:06;22.25;;;20.55;;
14874;SDS011;7529;48.170;17.138;2022-12-26T10:04:29;23.85;;;22.30;;
14874;SDS011;7529;48.170;17.138;2022-12-26T10:13:27;24.23;;;22.63;;
14874;SDS011;7529;48.170;17.138;2022-12-26T10:27:07;24.05;;;22.23;;
14874;SDS011;7529;48.170;17.138;2022-12-26T10:35:55;24.52;;;22.83;;
14874;SDS011;7529;48.170;17.138;2022-12-26T10:44:25;25.65;;;23.65;;
14874;SDS011;7529;48.170;17.138;2022-12-26T10:48:37;26.23;;;24.33;;
14874;SDS011;7529;48.170;17.138;2022-12-26T10:52:48;24.80;;;23.10;;
14874;SDS011;7529;48.170;17.138;2022-12-26T10:57:00;25.75;;;23.60;;
14874;SDS011;7529;48.170;17.138;2022-12-26T11:01:33;22.83;;;21.08;;
14874;SDS011;7529;48.170;17.138;2022-12-26T11:05:50;23.05;;;21.08;;
14874;SDS011;7529;48.170;17.138;2022-12-26T11:10:04;24.20;;;22.35;;
14874;SDS011;7529;48.170;17.138;2022-12-26T11:14:25;22.23;;;20.83;;
14874;SDS011;7529;48.170;17.138;2022-12-26T11:18:47;24.60;;;22.77;;
14874;SDS011;7529;48.170;17.138;2022-12-26T11:23:16;22.60;;;20.58;;
14874;SDS011;7529;48.170;17.138;2022-12-26T11:27:32;23.13;;;21.50;;
14874;SDS011;7529;48.170;17.138;2022-12-26T11:31:55;23.25;;;21.50;;
14874;SDS011;7529;48.170;17.138;2022-12-26T11:40:34;32.97;;;30.45;;
14874;SDS011;7529;48.170;17.138;2022-12-26T11:44:47;23.95;;;22.15;;
14874;SDS011;7529;48.170;17.138;2022-12-26T11:49:05;23.45;;;21.65;;
14874;SDS011;7529;48.170;17.138;2022-12-26T11:53:25;24.17;;;22.27;;
14874;SDS011;7529;48.170;17.138;2022-12-26T11:57:37;23.08;;;21.13;;
14874;SDS011;7529;48.170;17.138;2022-12-26T12:02:07;22.48;;;20.65;;
14874;SDS011;7529;48.170;17.138;2022-12-26T12:10:58;21.60;;;20.20;;
14874;SDS011;7529;48.170;17.138;2022-12-26T12:15:41;25.92;;;23.75;;
14874;SDS011;7529;48.170;17.138;2022-12-26T12:24:47;21.75;;;20.35;;
14874;SDS011;7529;48.170;17.138;2022-12-26T12:29:31;23.02;;;21.42;;
14874;SDS011;7529;48.170;17.138;2022-12-26T12:38:35;21.20;;;19.52;;
14874;SDS011;7529;48.170;17.138;2022-12-26T12:51:52;20.35;;;19.00;;
14874;SDS011;7529;48.170;17.138;2022-12-26T13:01:11;21.52;;;20.02;;
14874;SDS011;7529;48.170;17.138;2022-12-26T13:09:41;23.48;;;21.73;;
14874;SDS011;7529;48.170;17.138;2022-12-26T13:13:58;23.92;;;22.23;;
14874;SDS011;7529;48.170;17.138;2022-12-26T13:22:38;28.48;;;26.23;;
14874;SDS011;7529;48.170;17.138;2022-12-26T13:27:17;25.15;;;23.30;;
14874;SDS011;7529;48.170;17.138;2022-12-26T13:31:36;29.63;;;27.40;;
14874;SDS011;7529;48.170;17.138;2022-12-26T13:35:56;29.92;;;27.42;;
14874;SDS011;7529;48.170;17.138;2022-12-26T13:44:27;31.98;;;29.33;;
14874;SDS011;7529;48.170;17.138;2022-12-26T13:52:53;31.30;;;29.05;;
14874;SDS011;7529;48.170;17.138;2022-12-26T13:57:19;34.97;;;32.08;;
14874;SDS011;7529;48.170;17.138;2022-12-26T14:02:00;31.20;;;28.88;;
14874;SDS011;7529;48.170;17.138;2022-12-26T14:06:28;32.10;;;29.52;;
14874;SDS011;7529;48.170;17.138;2022-12-26T14:24:18;26.15;;;24.15;;
14874;SDS011;7529;48.170;17.138;2022-12-26T14:28:52;25.02;;;23.42;;
14874;SDS011;7529;48.170;17.138;2022-12-26T14:33:38;26.35;;;24.45;;
14874;SDS011;7529;48.170;17.138;2022-12-26T14:46:54;27.23;;;25.23;;
14874;SDS011;7529;48.170;17.138;2022-12-26T15:00:07;29.20;;;26.58;;
14874;SDS011;7529;48.170;17.138;2022-12-26T15:09:28;25.90;;;24.00;;
14874;SDS011;7529;48.170;17.138;2022-12-26T15:36:46;30.55;;;28.30;;
14874;SDS011;7529;48.170;17.138;2022-12-26T15:41:34;26.63;;;24.63;;
14874;SDS011;7529;48.170;17.138;2022-12-26T15:46:00;28.63;;;26.33;;
14874;SDS011;7529;48.170;17.138;2022-12-26T15:54:50;27.13;;;24.83;;
14874;SDS011;7529;48.170;17.138;2022-12-26T16:12:23;31.25;;;28.65;;
14874;SDS011;7529;48.170;17.138;2022-12-26T16:16:36;32.05;;;29.48;;
14874;SDS011;7529;48.170;17.138;2022-12-26T16:20:49;31.27;;;28.73;;
14874;SDS011;7529;48.170;17.138;2022-12-26T16:25:21;33.53;;;30.35;;
14874;SDS011;7529;48.170;17.138;2022-12-26T16:29:36;31.50;;;28.90;;
14874;SDS011;7529;48.170;17.138;2022-12-26T16:33:56;36.13;;;33.05;;
14874;SDS011;7529;48.170;17.138;2022-12-26T16:38:13;36.10;;;32.70;;
14874;SDS011;7529;48.170;17.138;2022-12-26T16:42:28;37.10;;;34.00;;
14874;SDS011;7529;48.170;17.138;2022-12-26T16:46:40;33.10;;;30.48;;
14874;SDS011;7529;48.170;17.138;2022-12-26T16:50:59;34.72;;;31.95;;
14874;SDS011;7529;48.170;17.138;2022-12-26T16:55:32;32.20;;;29.70;;
14874;SDS011;7529;48.170;17.138;2022-12-26T17:04:02;33.15;;;30.65;;
14874;SDS011;7529;48.170;17.138;2022-12-26T17:08:15;29.98;;;27.58;;
14874;SDS011;7529;48.170;17.138;2022-12-26T17:12:29;32.03;;;29.58;;
14874;SDS011;7529;48.170;17.138;2022-12-26T17:16:45;30.17;;;27.55;;
14874;SDS011;7529;48.170;17.138;2022-12-26T17:21:13;31.13;;;28.33;;
14874;SDS011;7529;48.170;17.138;2022-12-26T17:25:29;33.95;;;30.73;;
14874;SDS011;7529;48.170;17.138;2022-12-26T17:29:47;27.85;;;25.42;;
14874;SDS011;7529;48.170;17.138;2022-12-26T17:34:06;26.48;;;24.45;;
14874;SDS011;7529;48.170;17.138;2022-12-26T17:38:33;30.98;;;28.33;;
14874;SDS011;7529;48.170;17.138;2022-12-26T17:42:52;46.03;;;40.70;;
14874;SDS011;7529;48.170;17.138;2022-12-26T17:47:12;30.33;;;27.55;;
14874;SDS011;7529;48.170;17.138;2022-12-26T17:51:29;23.35;;;21.45;;
14874;SDS011;7529;48.170;17.138;2022-12-26T17:55:41;25.98;;;24.08;;
14874;SDS011;7529;48.170;17.138;2022-12-26T17:59:52;24.80;;;22.88;;
14874;SDS011;7529;48.170;17.138;2022-12-26T18:04:04;22.05;;;20.25;;
14874;SDS011;7529;48.170;17.138;2022-12-26T18:08:25;22.40;;;20.80;;
14874;SDS011;7529;48.170;17.138;2022-12-26T18:12:43;24.45;;;22.58;;
14874;SDS011;7529;48.170;17.138;2022-12-26T18:16:54;23.52;;;21.85;;
14874;SDS011;7529;48.170;17.138;2022-12-26T18:21:07;28.30;;;25.95;;
14874;SDS011;7529;48.170;17.138;2022-12-26T18:25:21;23.75;;;22.02;;
14874;SDS011;7529;48.170;17.138;2022-12-26T18:29:33;21.73;;;20.25;;
14874;SDS011;7529;48.170;17.138;2022-12-26T18:33:49;21.40;;;19.90;;
14874;SDS011;7529;48.170;17.138;2022-12-26T18:38:01;24.00;;;22.10;;
14874;SDS011;7529;48.170;17.138;2022-12-26T18:42:14;20.40;;;18.70;;
14874;SDS011;7529;48.170;17.138;2022-12-26T18:46:29;19.65;;;18.35;;
14874;SDS011;7529;48.170;17.138;2022-12-26T18:50:41;21.25;;;19.67;;
14874;SDS011;7529;48.170;17.138;2022-12-26T18:54:53;19.98;;;18.67;;
14874;SDS011;7529;48.170;17.138;2022-12-26T18:59:05;21.23;;;19.67;;
14874;SDS011;7529;48.170;17.138;2022-12-26T19:03:18;22.00;;;20.40;;
14874;SDS011;7529;48.170;17.138;2022-12-26T19:07:30;22.33;;;20.60;;
14874;SDS011;7529;48.170;17.138;2022-12-26T19:11:42;22.73;;;20.77;;
14874;SDS011;7529;48.170;17.138;2022-12-26T19:15:53;23.52;;;21.63;;
14874;SDS011;7529;48.170;17.138;2022-12-26T19:20:06;21.88;;;20.02;;
14874;SDS011;7529;48.170;17.138;2022-12-26T19:24:19;24.80;;;22.48;;
14874;SDS011;7529;48.170;17.138;2022-12-26T19:28:31;23.08;;;21.48;;
14874;SDS011;7529;48.170;17.138;2022-12-26T19:32:42;22.50;;;20.50;;
14874;SDS011;7529;48.170;17.138;2022-12-26T19:36:54;21.70;;;20.20;;
14874;SDS011;7529;48.170;17.138;2022-12-26T19:41:11;23.85;;;22.10;;
14874;SDS011;7529;48.170;17.138;2022-12-26T19:45:23;23.33;;;21.13;;
14874;SDS011;7529;48.170;17.138;2022-12-26T19:49:36;23.77;;;22.02;;
14874;SDS011;7529;48.170;17.138;2022-12-26T19:53:48;22.92;;;21.23;;
14874;SDS011;7529;48.170;17.138;2022-12-26T19:57:59;21.60;;;19.98;;
14874;SDS011;7529;48.170;17.138;2022-12-26T20:02:11;23.52;;;21.52;;
14874;SDS011;7529;48.170;17.138;2022-12-26T20:06:23;24.15;;;22.10;;
14874;SDS011;7529;48.170;17.138;2022-12-26T20:10:37;24.70;;;22.90;;
14874;SDS011;7529;48.170;17.138;2022-12-26T20:14:48;25.40;;;23.10;;
14874;SDS011;7529;48.170;17.138;2022-12-26T20:19:00;29.35;;;26.83;;
14874;SDS011;7529;48.170;17.138;2022-12-26T20:23:12;27.58;;;25.60;;
14874;SDS011;7529;48.170;17.138;2022-12-26T20:27:23;29.77;;;27.02;;
14874;SDS011;7529;48.170;17.138;2022-12-26T20:31:35;29.98;;;27.30;;
14874;SDS011;7529;48.170;17.138;2022-12-26T20:35:48;29.48;;;26.70;;
14874;SDS011;7529;48.170;17.138;2022-12-26T20:40:00;26.52;;;23.95;;
14874;SDS011;7529;48.170;17.138;2022-12-26T20:44:13;28.55;;;25.75;;
14874;SDS011;7529;48.170;17.138;2022-12-26T20:48:27;27.83;;;25.25;;
14874;SDS011;7529;48.170;17.138;2022-12-26T20:52:45;27.63;;;25.27;;
14874;SDS011;7529;48.170;17.138;2022-12-26T20:56:57;28.50;;;26.25;;
14874;SDS011;7529;48.170;17.138;2022-12-26T21:01:11;28.50;;;26.00;;
14874;SDS011;7529;48.170;17.138;2022-12-26T21:05:24;21.88;;;20.00;;
14874;SDS011;7529;48.170;17.138;2022-12-26T21:09:35;16.88;;;15.73;;
14874;SDS011;7529;48.170;17.138;2022-12-26T21:13:47;14.95;;;14.00;;
14874;SDS011;7529;48.170;17.138;2022-12-26T21:18:00;11.10;;;10.40;;
14874;SDS011;7529;48.170;17.138;2022-12-26T21:22:12;12.18;;;11.48;;
14874;SDS011;7529;48.170;17.138;2022-12-26T21:26:24;10.82;;;10.23;;
14874;SDS011;7529;48.170;17.138;2022-12-26T21:30:36;10.60;;;9.98;;
14874;SDS011;7529;48.170;17.138;2022-12-26T21:34:48;9.93;;;9.43;;
14874;SDS011;7529;48.170;17.138;2022-12-26T21:39:03;9.27;;;8.88;;
14874;SDS011;7529;48.170;17.138;2022-12-26T21:43:18;10.27;;;9.82;;
14874;SDS011;7529;48.170;17.138;2022-12-26T21:47:31;9.57;;;9.18;;
14874;SDS011;7529;48.170;17.138;2022-12-26T21:51:43;10.23;;;9.75;;
14874;SDS011;7529;48.170;17.138;2022-12-26T21:55:54;10.30;;;9.85;;
14874;SDS011;7529;48.170;17.138;2022-12-26T22:00:14;11.98;;;11.30;;
14874;SDS011;7529;48.170;17.138;2022-12-26T22:04:26;10.70;;;10.30;;
14874;SDS011;7529;48.170;17.138;2022-12-26T22:08:38;12.02;;;11.52;;
14874;SDS011;7529;48.170;17.138;2022-12-26T22:12:52;13.65;;;13.05;;
14874;SDS011;7529;48.170;17.138;2022-12-26T22:17:07;13.93;;;13.32;;
14874;SDS011;7529;48.170;17.138;2022-12-26T22:21:19;13.05;;;12.25;;
14874;SDS011;7529;48.170;17.138;2022-12-26T22:25:31;13.43;;;12.82;;
14874;SDS011;7529;48.170;17.138;2022-12-26T22:29:43;10.68;;;10.27;;
14874;SDS011;7529;48.170;17.138;2022-12-26T22:33:55;11.70;;;11.20;;
14874;SDS011;7529;48.170;17.138;2022-12-26T22:38:08;12.20;;;11.70;;
14874;SDS011;7529;48.170;17.138;2022-12-26T22:42:19;12.70;;;11.98;;
14874;SDS011;7529;48.170;17.138;2022-12-26T22:46:31;16.60;;;15.90;;
14874;SDS011;7529;48.170;17.138;2022-12-26T22:50:43;15.07;;;14.45;;
14874;SDS011;7529;48.170;17.138;2022-12-26T22:54:55;14.63;;;14.02;;
14874;SDS011;7529;48.170;17.138;2022-12-26T22:59:08;10.95;;;10.52;;
14874;SDS011;7529;48.170;17.138;2022-12-26T23:03:22;11.75;;;11.25;;
14874;SDS011;7529;48.170;17.138;2022-12-26T23:07:33;11.45;;;11.02;;
14874;SDS011;7529;48.170;17.138;2022-12-26T23:11:45;12.52;;;11.68;;
14874;SDS011;7529;48.170;17.138;2022-12-26T23:20:37;12.00;;;11.40;;
14874;SDS011;7529;48.170;17.138;2022-12-26T23:25:10;12.68;;;12.18;;
14874;SDS011;7529;48.170;17.138;2022-12-26T23:29:22;11.27;;;10.82;;
14874;SDS011;7529;48.170;17.138;2022-12-26T23:33:52;11.55;;;11.05;;
14874;SDS011;7529;48.170;17.138;2022-12-26T23:38:04;13.57;;;12.98;;
14874;SDS011;7529;48.170;17.138;2022-12-26T23:42:16;13.45;;;12.88;;
14874;SDS011;7529;48.170;17.138;2022-12-26T23:46:28;12.95;;;12.45;;
14874;SDS011;7529;48.170;17.138;2022-12-26T23:50:39;14.23;;;13.63;;
14874;SDS011;7529;48.170;17.138;2022-12-26T23:54:51;16.75;;;15.95;;
14874;SDS011;7529;48.170;17.138;2022-12-26T23:59:02;13.00;;;12.23;;
